TimeCDT,TemperatureF,Dew PointF,Humidity,Sea Level PressureIn,VisibilityMPH,Wind Direction,Wind SpeedMPH,Gust SpeedMPH,PrecipitationIn,Events,Conditions,WindDirDegrees,DateUTC
12:15 AM,77.0,66.2,69,29.66,10.0,SE,15.0,19.6,N/A,,Clear,140,2013-06-23 05:15:00
12:35 AM,75.2,68.0,78,29.67,10.0,SE,12.7,-,N/A,,Clear,140,2013-06-23 05:35:00
12:55 AM,75.2,68.0,78,29.68,10.0,SSE,11.5,-,N/A,,Clear,150,2013-06-23 05:55:00
1:15 AM,77.0,68.0,74,29.66,10.0,SSE,12.7,-,N/A,,Clear,150,2013-06-23 06:15:00
1:35 AM,77.0,68.0,74,29.73,10.0,WNW,23.0,31.1,N/A,,Scattered Clouds,290,2013-06-23 06:35:00
1:55 AM,66.2,60.8,83,29.75,9.0,WNW,28.8,34.5,0.08,Thunderstorm,Thunderstorm,300,2013-06-23 06:55:00
2:15 AM,64.4,60.8,88,29.79,10.0,WNW,21.9,33.4,0.01,,Mostly Cloudy,300,2013-06-23 07:15:00
2:35 AM,64.4,60.8,88,29.80,10.0,NW,24.2,36.8,0.01,,Mostly Cloudy,310,2013-06-23 07:35:00
2:55 AM,62.6,60.8,94,29.81,10.0,NW,18.4,32.2,0.01,,Scattered Clouds,310,2013-06-23 07:55:00
3:15 AM,62.6,60.8,94,29.82,10.0,NW,11.5,-,N/A,,Clear,310,2013-06-23 08:15:00
3:35 AM,62.6,59.0,88,29.82,10.0,NW,11.5,-,N/A,,Scattered Clouds,310,2013-06-23 08:35:00
3:55 AM,62.6,60.8,94,29.86,10.0,SW,4.6,-,N/A,,Mostly Cloudy,230,2013-06-23 08:55:00
4:15 AM,62.6,60.8,94,29.84,10.0,WSW,13.8,-,0.04,,Overcast,250,2013-06-23 09:15:00
4:35 AM,62.6,60.8,94,29.80,10.0,WNW,8.1,-,0.07,,Mostly Cloudy,290,2013-06-23 09:35:00
4:55 AM,62.6,60.8,94,29.83,10.0,South,12.7,-,0.09,,Mostly Cloudy,180,2013-06-23 09:55:00
5:15 AM,62.6,60.8,94,29.80,10.0,SSE,11.5,-,0.02,,Mostly Cloudy,160,2013-06-23 10:15:00
5:35 AM,62.6,60.8,94,29.79,10.0,South,8.1,-,0.04,,Mostly Cloudy,170,2013-06-23 10:35:00
5:55 AM,62.6,60.8,94,29.76,10.0,SSW,5.8,-,0.04,,Mostly Cloudy,210,2013-06-23 10:55:00
6:15 AM,62.6,60.8,94,29.73,10.0,SE,9.2,-,N/A,,Partly Cloudy,140,2013-06-23 11:15:00
6:35 AM,62.6,60.8,94,29.70,10.0,SE,4.6,-,N/A,,Clear,130,2013-06-23 11:35:00
6:55 AM,62.6,60.8,94,29.74,10.0,SSW,4.6,-,N/A,,Clear,210,2013-06-23 11:55:00
7:15 AM,62.6,60.8,94,29.76,10.0,NNW,4.6,-,N/A,,Clear,330,2013-06-23 12:15:00
7:35 AM,62.6,60.8,94,29.79,10.0,NW,21.9,-,N/A,,Partly Cloudy,320,2013-06-23 12:35:00
7:55 AM,62.6,60.8,94,29.79,10.0,NNW,13.8,-,N/A,,Partly Cloudy,340,2013-06-23 12:55:00
8:15 AM,64.4,60.8,88,29.81,10.0,NW,6.9,-,N/A,,Clear,320,2013-06-23 13:15:00
8:35 AM,64.4,60.8,88,29.81,10.0,NNW,4.6,-,N/A,,Clear,340,2013-06-23 13:35:00
8:55 AM,66.2,62.6,88,29.83,10.0,North,6.9,-,N/A,,Clear,350,2013-06-23 13:55:00
9:15 AM,66.2,62.6,88,29.85,4.0,WNW,5.8,-,N/A,,Clear,290,2013-06-23 14:15:00
9:35 AM,66.2,62.6,88,29.86,10.0,WNW,9.2,-,N/A,,Scattered Clouds,290,2013-06-23 14:35:00
9:55 AM,68.0,62.6,83,29.88,10.0,WSW,6.9,-,N/A,,Mostly Cloudy,250,2013-06-23 14:55:00
10:15 AM,68.0,62.6,83,29.88,10.0,West,9.2,-,N/A,,Overcast,260,2013-06-23 15:15:00
10:35 AM,69.8,62.6,78,29.88,10.0,West,9.2,-,N/A,,Mostly Cloudy,270,2013-06-23 15:35:00
10:55 AM,69.8,60.8,73,29.89,10.0,West,8.1,-,N/A,,Scattered Clouds,280,2013-06-23 15:55:00
11:15 AM,69.8,62.6,78,29.89,10.0,West,8.1,-,N/A,,Clear,260,2013-06-23 16:15:00
11:35 AM,71.6,60.8,69,29.88,10.0,WSW,6.9,-,N/A,,Clear,240,2013-06-23 16:35:00
11:55 AM,71.6,60.8,69,29.88,10.0,West,8.1,-,N/A,,Clear,260,2013-06-23 16:55:00
12:15 PM,71.6,62.6,73,29.88,10.0,WSW,6.9,-,N/A,,Partly Cloudy,250,2013-06-23 17:15:00
12:35 PM,73.4,62.6,69,29.88,10.0,SW,11.5,-,N/A,,Mostly Cloudy,220,2013-06-23 17:35:00
12:55 PM,73.4,62.6,69,29.88,10.0,West,11.5,-,N/A,,Mostly Cloudy,260,2013-06-23 17:55:00
1:15 PM,73.4,64.4,73,29.88,7.0,SSW,10.4,-,N/A,,Scattered Clouds,210,2013-06-23 18:15:00
1:35 PM,73.4,62.6,69,29.88,10.0,WSW,10.4,-,N/A,,Mostly Cloudy,240,2013-06-23 18:35:00
1:55 PM,73.4,62.6,69,29.88,10.0,West,6.9,-,N/A,,Mostly Cloudy,280,2013-06-23 18:55:00
2:15 PM,75.2,64.4,69,29.88,10.0,WNW,9.2,-,N/A,,Mostly Cloudy,290,2013-06-23 19:15:00
2:35 PM,75.2,64.4,69,29.86,10.0,WSW,9.2,-,N/A,,Mostly Cloudy,250,2013-06-23 19:35:00
2:55 PM,75.2,62.6,65,29.86,10.0,West,8.1,-,N/A,,Mostly Cloudy,270,2013-06-23 19:55:00
3:15 PM,77.0,64.4,65,29.87,10.0,SW,6.9,-,N/A,,Scattered Clouds,230,2013-06-23 20:15:00
3:35 PM,77.0,62.6,61,29.87,10.0,SW,10.4,-,N/A,,Partly Cloudy,230,2013-06-23 20:35:00
3:55 PM,77.0,62.6,61,29.87,10.0,SSW,10.4,-,N/A,,Clear,210,2013-06-23 20:55:00
4:15 PM,77.0,62.6,61,29.87,10.0,NW,5.8,-,N/A,,Clear,310,2013-06-23 21:15:00
4:35 PM,78.8,64.4,61,29.86,10.0,West,6.9,-,N/A,,Clear,260,2013-06-23 21:35:00
4:55 PM,78.8,64.4,61,29.86,10.0,WNW,9.2,-,N/A,,Clear,300,2013-06-23 21:55:00
5:15 PM,78.8,62.6,57,29.86,10.0,WNW,9.2,-,N/A,,Clear,300,2013-06-23 22:15:00
5:35 PM,78.8,62.6,57,29.85,10.0,WNW,6.9,-,N/A,,Clear,300,2013-06-23 22:35:00
5:55 PM,78.8,60.8,54,29.86,10.0,West,8.1,-,N/A,,Clear,280,2013-06-23 22:55:00
6:15 PM,78.8,60.8,54,29.86,10.0,WNW,4.6,-,N/A,,Clear,300,2013-06-23 23:15:00
6:35 PM,78.8,62.6,57,29.85,10.0,WNW,5.8,-,N/A,,Clear,290,2013-06-23 23:35:00
6:55 PM,78.8,62.6,57,29.85,10.0,NW,5.8,-,N/A,,Clear,320,2013-06-23 23:55:00
7:15 PM,78.8,60.8,54,29.85,10.0,Calm,Calm,-,N/A,,Clear,0,2013-06-24 00:15:00
7:35 PM,78.8,60.8,54,29.86,10.0,Calm,Calm,-,N/A,,Clear,0,2013-06-24 00:35:00
7:55 PM,78.8,62.6,57,29.86,10.0,East,3.5,-,N/A,,Clear,80,2013-06-24 00:55:00
8:15 PM,78.8,62.6,57,29.86,10.0,Calm,Calm,-,N/A,,Clear,0,2013-06-24 01:15:00
8:35 PM,77.0,64.4,65,29.86,10.0,Calm,Calm,-,N/A,,Clear,0,2013-06-24 01:35:00
8:55 PM,75.2,66.2,73,29.86,10.0,Calm,Calm,-,N/A,,Clear,0,2013-06-24 01:55:00
9:15 PM,75.2,60.8,61,29.87,10.0,ENE,3.5,-,N/A,,Clear,70,2013-06-24 02:15:00
9:35 PM,73.4,62.6,69,29.87,10.0,East,3.5,-,N/A,,Clear,80,2013-06-24 02:35:00
9:55 PM,73.4,62.6,69,29.87,10.0,Calm,Calm,-,N/A,,Clear,0,2013-06-24 02:55:00
10:15 PM,71.6,62.6,73,29.88,10.0,ENE,3.5,-,N/A,,Clear,70,2013-06-24 03:15:00
10:35 PM,69.8,62.6,78,29.88,10.0,ENE,3.5,-,N/A,,Clear,70,2013-06-24 03:35:00
10:55 PM,69.8,62.6,78,29.89,10.0,NE,4.6,-,N/A,,Clear,50,2013-06-24 03:55:00
11:15 PM,71.6,62.6,73,29.90,10.0,East,4.6,-,N/A,,Clear,80,2013-06-24 04:15:00
11:35 PM,69.8,62.6,78,29.90,10.0,East,4.6,-,N/A,,Clear,100,2013-06-24 04:35:00
11:55 PM,69.8,62.6,78,29.90,10.0,East,3.5,-,N/A,,Clear,80,2013-06-24 04:55:00